createdAt,value
2022-12-13T00:00:50.582Z,11.18
2022-12-13T00:01:54.543Z,9.40
2022-12-13T00:02:56.553Z,9.93
2022-12-13T00:04:01.142Z,11.15
2022-12-13T00:05:04.171Z,10.10
2022-12-13T00:06:06.360Z,10.93
2022-12-13T00:07:09.138Z,9.02
2022-12-13T00:08:11.483Z,11.45
2022-12-13T00:09:14.842Z,11.25
2022-12-13T00:10:16.795Z,11.85
2022-12-13T00:11:19.644Z,10.95
2022-12-13T00:12:23.025Z,7.68
2022-12-13T00:13:26.601Z,8.68
2022-12-13T00:14:29.529Z,9.35
2022-12-13T00:15:31.323Z,10.27
2022-12-13T00:16:34.111Z,9.40
2022-12-13T00:17:36.026Z,10.57
2022-12-13T00:18:38.967Z,11.18
2022-12-13T00:19:41.709Z,9.70
2022-12-13T00:20:43.504Z,9.02
2022-12-13T00:21:46.604Z,12.63
2022-12-13T00:22:48.465Z,10.77
2022-12-13T00:23:51.722Z,10.07
2022-12-13T00:24:54.335Z,15.05
2022-12-13T00:25:57.090Z,9.95
2022-12-13T00:26:59.002Z,7.28
2022-12-13T00:28:03.625Z,11.55
2022-12-13T00:29:06.657Z,10.93
2022-12-13T00:30:10.528Z,10.07
2022-12-13T00:31:51.651Z,10.75
2022-12-13T00:32:34.946Z,11.30
2022-12-13T00:33:37.821Z,11.20
2022-12-13T00:34:40.550Z,10.20
2022-12-13T00:35:42.430Z,10.10
2022-12-13T00:36:45.570Z,10.90
2022-12-13T00:37:47.292Z,4.68
2022-12-13T00:39:00.842Z,9.82
2022-12-13T00:40:03.834Z,6.53
2022-12-13T00:41:13.301Z,7.40
2022-12-13T00:42:16.013Z,10.18
2022-12-13T00:43:19.178Z,8.85
2022-12-13T00:44:21.923Z,10.45
2022-12-13T00:45:24.818Z,6.75
2022-12-13T00:46:27.800Z,9.32
2022-12-13T00:47:30.600Z,8.80
2022-12-13T00:48:32.328Z,10.07
2022-12-13T00:49:35.173Z,9.35
2022-12-13T00:50:37.771Z,9.45
2022-12-13T00:51:40.997Z,8.48
2022-12-13T00:52:42.814Z,8.10
2022-12-13T00:53:45.946Z,8.95
2022-12-13T00:54:48.826Z,8.32
2022-12-13T00:55:51.078Z,7.55
2022-12-13T00:56:54.055Z,6.70
2022-12-13T00:57:55.897Z,7.18
2022-12-13T00:59:00.918Z,4.45
2022-12-13T01:00:04.379Z,6.50
2022-12-13T01:01:07.970Z,4.97
2022-12-13T01:02:10.789Z,7.80
2022-12-13T01:03:20.673Z,6.90
2022-12-13T01:04:23.554Z,5.30
2022-12-13T01:06:02.245Z,4.00
2022-12-13T01:06:51.353Z,6.72
2022-12-13T01:07:53.179Z,6.32
2022-12-13T01:08:56.566Z,6.57
2022-12-13T01:09:59.397Z,6.68
2022-12-13T01:11:01.201Z,5.93
2022-12-13T01:12:06.924Z,6.55
2022-12-13T01:13:08.665Z,6.22
2022-12-13T01:14:12.772Z,7.30
2022-12-13T01:15:14.949Z,7.15
2022-12-13T01:16:18.686Z,6.95
2022-12-13T01:17:21.744Z,6.72
2022-12-13T01:18:23.571Z,7.05
2022-12-13T01:19:27.562Z,7.50
2022-12-13T01:20:29.307Z,7.15
2022-12-13T01:21:32.181Z,5.18
2022-12-13T01:22:33.969Z,7.53
2022-12-13T01:23:36.942Z,6.10
2022-12-13T01:24:40.008Z,6.80
2022-12-13T01:25:41.744Z,6.88
2022-12-13T01:26:44.855Z,7.85
2022-12-13T01:27:47.171Z,7.05
2022-12-13T01:28:50.428Z,6.60
2022-12-13T01:29:53.521Z,8.55
2022-12-13T01:30:57.540Z,5.25
2022-12-13T01:31:59.548Z,5.63
2022-12-13T01:33:02.287Z,6.78
2022-12-13T01:34:19.262Z,6.90
2022-12-13T01:35:21.066Z,7.47
2022-12-13T01:36:27.511Z,5.50
2022-12-13T01:37:31.079Z,3.08
2022-12-13T01:38:39.223Z,7.95
2022-12-13T01:39:41.987Z,6.45
2022-12-13T01:40:45.397Z,4.80
2022-12-13T01:41:50.595Z,6.97
2022-12-13T01:42:53.714Z,6.72
2022-12-13T01:43:58.032Z,6.57
2022-12-13T01:45:07.814Z,6.82
2022-12-13T01:46:10.632Z,5.88
2022-12-13T01:47:15.970Z,4.50
2022-12-13T01:48:22.007Z,4.32
2022-12-13T01:49:23.796Z,5.57
2022-12-13T01:50:31.900Z,7.22
2022-12-13T01:51:36.442Z,6.90
2022-12-13T01:52:39.530Z,6.13
2022-12-13T01:54:02.611Z,5.25
2022-12-13T01:55:07.491Z,6.88
2022-12-13T01:56:11.912Z,5.32
2022-12-13T01:57:15.935Z,7.22
2022-12-13T01:58:19.518Z,5.30
2022-12-13T01:59:22.255Z,5.28
2022-12-13T02:00:27.549Z,7.03
2022-12-13T02:01:29.681Z,5.70
2022-12-13T02:02:32.485Z,4.53
2022-12-13T02:03:35.182Z,4.25
2022-12-13T02:04:43.805Z,6.97
2022-12-13T02:05:53.113Z,7.10
2022-12-13T02:06:56.343Z,6.35
2022-12-13T02:08:01.178Z,7.05
2022-12-13T02:09:05.200Z,4.38
2022-12-13T02:10:09.543Z,5.32
2022-12-13T02:11:11.711Z,6.90
2022-12-13T02:12:14.810Z,6.88
2022-12-13T02:13:16.723Z,7.22
2022-12-13T02:14:19.461Z,6.53
2022-12-13T02:15:21.909Z,5.93
2022-12-13T02:16:35.359Z,6.90
2022-12-13T02:17:52.314Z,7.00
2022-12-13T02:19:06.836Z,6.43
2022-12-13T02:20:26.863Z,5.78
2022-12-13T02:21:34.313Z,4.47
2022-12-13T02:23:05.154Z,6.70
2022-12-13T02:24:40.758Z,5.10
2022-12-13T02:26:00.191Z,6.55
2022-12-13T02:27:10.241Z,5.35
2022-12-13T02:28:31.289Z,6.40
2022-12-13T02:30:19.631Z,6.22
2022-12-13T02:31:28.306Z,4.57
2022-12-13T02:32:33.287Z,3.30
2022-12-13T02:33:42.687Z,4.28
2022-12-13T02:34:47.195Z,7.45
2022-12-13T02:35:54.601Z,6.90
2022-12-13T02:36:59.413Z,6.45
2022-12-13T02:38:06.913Z,9.35
2022-12-13T02:39:11.888Z,6.95
2022-12-13T02:40:20.016Z,6.18
2022-12-13T02:41:27.706Z,6.68
2022-12-13T02:42:31.741Z,7.80
2022-12-13T02:43:45.224Z,8.30
2022-12-13T02:44:52.457Z,7.10
2022-12-13T02:45:56.975Z,7.03
2022-12-13T02:47:03.188Z,6.60
2022-12-13T02:48:07.191Z,5.15
2022-12-13T02:49:10.300Z,5.07
2022-12-13T02:50:14.572Z,6.78
2022-12-13T02:51:16.943Z,6.60
2022-12-13T02:52:22.201Z,7.47
2022-12-13T02:53:25.692Z,6.95
2022-12-13T02:54:28.436Z,5.90
2022-12-13T02:55:32.381Z,6.63
2022-12-13T02:56:35.138Z,4.57
2022-12-13T02:57:38.481Z,7.32
2022-12-13T02:58:43.998Z,6.88
2022-12-13T02:59:45.865Z,7.70
2022-12-13T03:00:56.614Z,5.90
2022-12-13T03:02:10.857Z,6.53
2022-12-13T03:03:21.829Z,5.85
2022-12-13T03:04:33.697Z,6.95
2022-12-13T03:05:59.397Z,6.18
2022-12-13T03:07:08.684Z,6.32
2022-12-13T03:08:19.692Z,5.97
2022-12-13T03:09:38.297Z,5.68
2022-12-13T03:10:43.673Z,7.05
2022-12-13T03:12:18.149Z,6.07
2022-12-13T03:13:39.936Z,5.43
2022-12-13T03:14:50.321Z,5.50
2022-12-13T03:15:57.688Z,4.85
2022-12-13T03:17:02.284Z,6.18
2022-12-13T03:18:15.743Z,6.38
2022-12-13T03:19:20.583Z,5.78
2022-12-13T03:20:24.730Z,6.68
2022-12-13T03:21:27.642Z,6.30
2022-12-13T03:22:29.509Z,3.33
2022-12-13T03:23:32.264Z,6.30
2022-12-13T03:24:34.122Z,6.30
2022-12-13T03:25:36.980Z,7.15
2022-12-13T03:26:39.494Z,7.35
2022-12-13T03:27:42.350Z,7.03
2022-12-13T03:28:44.535Z,6.80
2022-12-13T03:29:47.290Z,7.00
2022-12-13T03:30:49.183Z,6.60
2022-12-13T03:31:51.960Z,7.28
2022-12-13T03:32:55.083Z,7.70
2022-12-13T03:33:58.299Z,6.88
2022-12-13T03:35:00.965Z,7.28
2022-12-13T03:36:04.044Z,6.78
2022-12-13T03:37:05.783Z,7.90
2022-12-13T03:38:09.040Z,7.53
2022-12-13T03:39:11.828Z,6.90
2022-12-13T03:40:13.775Z,5.57
2022-12-13T03:41:20.186Z,6.90
2022-12-13T03:42:21.962Z,6.90
2022-12-13T03:43:24.984Z,6.45
2022-12-13T03:44:31.712Z,7.88
2022-12-13T03:45:34.548Z,6.85
2022-12-13T03:46:36.454Z,6.30
2022-12-13T03:47:39.585Z,4.75
2022-12-13T03:48:42.684Z,6.47
2022-12-13T03:49:45.423Z,9.10
2022-12-13T03:50:57.569Z,7.60
2022-12-13T03:51:59.378Z,7.57
2022-12-13T03:53:04.695Z,7.65
2022-12-13T03:54:07.497Z,7.63
2022-12-13T03:55:09.329Z,8.23
2022-12-13T03:56:12.044Z,7.65
2022-12-13T03:57:15.657Z,7.28
2022-12-13T03:58:18.461Z,7.28
2022-12-13T03:59:21.200Z,8.07
2022-12-13T04:00:23.383Z,8.00
2022-12-13T04:01:26.375Z,8.80
2022-12-13T04:02:31.158Z,9.52
2022-12-13T04:03:34.638Z,9.27
2022-12-13T04:04:38.774Z,8.80
2022-12-13T04:05:40.560Z,9.40
2022-12-13T04:06:43.649Z,10.77
2022-12-13T04:07:48.358Z,9.85
2022-12-13T04:08:52.003Z,9.82
2022-12-13T04:09:53.962Z,10.57
2022-12-13T04:10:56.716Z,10.82
2022-12-13T04:12:17.080Z,10.93
2022-12-13T04:13:33.931Z,9.50
2022-12-13T04:14:36.678Z,10.75
2022-12-13T04:15:38.446Z,10.75
2022-12-13T04:16:41.297Z,7.15
2022-12-13T04:17:43.056Z,10.88
2022-12-13T04:18:54.295Z,9.93
2022-12-13T04:19:57.466Z,9.50
2022-12-13T04:21:00.226Z,7.70
2022-12-13T04:22:02.056Z,9.82
2022-12-13T04:23:09.926Z,10.27
2022-12-13T04:24:13.428Z,13.07
2022-12-13T04:25:15.433Z,10.02
2022-12-13T04:26:18.549Z,10.38
2022-12-13T04:27:20.331Z,11.60
2022-12-13T04:28:23.339Z,8.57
2022-12-13T04:29:25.520Z,9.60
2022-12-13T04:30:37.665Z,9.05
2022-12-13T04:31:41.036Z,8.73
2022-12-13T04:32:42.897Z,7.78
2022-12-13T04:33:45.614Z,9.73
2022-12-13T04:34:47.496Z,10.77
2022-12-13T04:35:52.201Z,9.65
2022-12-13T04:36:53.966Z,6.55
2022-12-13T04:37:57.032Z,9.52
2022-12-13T04:39:00.526Z,9.27
2022-12-13T04:40:02.778Z,9.05
2022-12-13T04:41:07.147Z,10.40
2022-12-13T04:42:09.245Z,9.68
2022-12-13T04:43:11.951Z,6.03
2022-12-13T04:44:27.892Z,6.47
2022-12-13T04:45:33.443Z,8.73
2022-12-13T04:46:35.793Z,9.00
2022-12-13T04:47:38.583Z,7.72
2022-12-13T04:48:41.470Z,8.98
2022-12-13T04:49:43.204Z,9.82
2022-12-13T04:50:46.010Z,9.05
2022-12-13T04:51:49.332Z,10.45
2022-12-13T04:52:52.125Z,8.80
2022-12-13T04:53:53.975Z,9.13
2022-12-13T04:54:57.212Z,9.20
2022-12-13T04:55:59.266Z,9.30
2022-12-13T04:57:01.956Z,8.50
2022-12-13T04:58:03.826Z,7.07
2022-12-13T04:59:06.600Z,10.15
2022-12-13T05:00:13.182Z,10.13
2022-12-13T05:01:16.059Z,10.38
2022-12-13T05:02:23.971Z,9.55
2022-12-13T05:03:27.872Z,9.90
2022-12-13T05:04:33.220Z,7.32
2022-12-13T05:05:39.573Z,10.07
2022-12-13T05:06:41.330Z,9.52
2022-12-13T05:07:45.469Z,10.10
2022-12-13T05:08:47.305Z,10.38
2022-12-13T05:09:50.127Z,6.65
2022-12-13T05:10:51.954Z,8.60
2022-12-13T05:12:00.982Z,8.35
2022-12-13T05:13:05.137Z,10.02
2022-12-13T05:14:06.949Z,7.75
2022-12-13T05:15:10.366Z,9.05
2022-12-13T05:16:12.534Z,10.98
2022-12-13T05:17:15.485Z,10.20
2022-12-13T05:18:17.261Z,7.85
2022-12-13T05:19:20.242Z,8.90
2022-12-13T05:20:22.436Z,8.27
2022-12-13T05:21:25.337Z,10.73
2022-12-13T05:22:27.248Z,9.80
2022-12-13T05:23:31.441Z,10.93
2022-12-13T05:24:33.233Z,11.27
2022-12-13T05:25:36.725Z,9.93
2022-12-13T05:26:38.712Z,11.80
2022-12-13T05:27:41.494Z,10.68
2022-12-13T05:28:44.337Z,11.75
2022-12-13T05:29:46.361Z,8.73
2022-12-13T05:30:49.078Z,11.15
2022-12-13T05:31:52.029Z,13.18
2022-12-13T05:32:55.200Z,11.15
2022-12-13T05:34:01.535Z,13.35
2022-12-13T05:35:05.148Z,11.10
2022-12-13T05:36:07.721Z,12.95
2022-12-13T05:37:10.451Z,17.25
2022-12-13T05:38:12.293Z,15.48
2022-12-13T05:39:27.879Z,15.13
2022-12-13T05:40:33.073Z,15.93
2022-12-13T05:41:36.878Z,18.25
2022-12-13T05:42:38.807Z,15.65
2022-12-13T05:43:42.810Z,17.70
2022-12-13T05:44:46.468Z,16.65
2022-12-13T05:45:48.495Z,14.18
2022-12-13T05:46:51.285Z,19.45
2022-12-13T05:47:53.169Z,20.50
2022-12-13T05:48:56.050Z,22.17
2022-12-13T05:49:59.351Z,20.63
2022-12-13T05:51:10.859Z,20.20
2022-12-13T05:52:18.015Z,18.30
2022-12-13T05:53:30.568Z,20.90
2022-12-13T05:54:35.706Z,19.75
2022-12-13T05:55:38.144Z,21.98
2022-12-13T05:56:40.851Z,20.38
2022-12-13T05:57:42.732Z,18.88
2022-12-13T05:58:54.296Z,22.90
2022-12-13T05:59:58.004Z,17.63
2022-12-13T06:01:05.980Z,20.13
2022-12-13T06:02:09.300Z,21.42
2022-12-13T06:03:11.205Z,21.25
2022-12-13T06:04:23.150Z,21.73
2022-12-13T06:05:25.356Z,19.42
2022-12-13T06:06:29.805Z,20.52
2022-12-13T06:07:32.653Z,21.08
2022-12-13T06:08:35.975Z,20.88
2022-12-13T06:09:39.867Z,20.50
2022-12-13T06:10:43.117Z,20.60
2022-12-13T06:11:45.978Z,19.15
2022-12-13T06:12:47.723Z,14.35
2022-12-13T06:13:52.940Z,20.38
2022-12-13T06:15:04.629Z,21.20
2022-12-13T06:16:25.563Z,16.45
2022-12-13T06:17:31.835Z,14.20
2022-12-13T06:18:35.032Z,17.30
2022-12-13T06:19:37.835Z,17.70
2022-12-13T06:20:39.730Z,20.17
2022-12-13T06:21:46.332Z,17.50
2022-12-13T06:22:48.414Z,17.08
2022-12-13T06:23:51.161Z,22.50
2022-12-13T06:24:55.416Z,15.98
2022-12-13T06:25:57.483Z,19.90
2022-12-13T06:27:00.992Z,19.17
2022-12-13T06:28:03.513Z,19.17
2022-12-13T06:29:06.292Z,18.67
2022-12-13T06:30:09.468Z,19.38
2022-12-13T06:31:12.704Z,19.48
2022-12-13T06:32:15.511Z,16.67
2022-12-13T06:33:23.597Z,18.52
2022-12-13T06:34:26.603Z,21.58
2022-12-13T06:35:30.484Z,20.40
2022-12-13T06:36:34.041Z,22.33
2022-12-13T06:37:36.834Z,21.15
2022-12-13T06:38:43.589Z,20.80
2022-12-13T06:39:46.659Z,18.90
2022-12-13T06:40:51.183Z,14.82
2022-12-13T06:41:53.895Z,19.67
2022-12-13T06:42:56.746Z,18.27
2022-12-13T06:43:58.866Z,15.43
2022-12-13T06:45:01.601Z,15.25
2022-12-13T06:46:04.903Z,19.15
2022-12-13T06:47:11.089Z,15.68
2022-12-13T06:48:17.498Z,18.60
2022-12-13T06:49:22.884Z,19.38
2022-12-13T06:50:25.937Z,14.30
2022-12-13T06:51:32.943Z,18.50
2022-12-13T06:52:36.455Z,17.90
2022-12-13T06:53:40.266Z,16.77
2022-12-13T06:54:43.648Z,19.52
2022-12-13T06:55:46.969Z,13.20
2022-12-13T06:56:50.127Z,17.38
2022-12-13T06:57:52.840Z,18.48
2022-12-13T06:59:01.217Z,18.35
2022-12-13T07:00:06.111Z,17.55
2022-12-13T07:01:15.080Z,16.42
2022-12-13T07:02:27.249Z,15.65
2022-12-13T07:03:29.885Z,14.75
2022-12-13T07:04:32.982Z,16.88
2022-12-13T07:05:35.793Z,14.35
2022-12-13T07:06:37.938Z,17.60
2022-12-13T07:07:40.680Z,17.88
2022-12-13T07:08:43.984Z,17.40
2022-12-13T07:09:47.069Z,15.90
2022-12-13T07:10:49.832Z,14.43
2022-12-13T07:11:54.183Z,11.88
2022-12-13T07:12:56.971Z,14.55
2022-12-13T07:14:00.669Z,17.00
2022-12-13T07:15:02.473Z,18.38
2022-12-13T07:16:05.897Z,16.95
2022-12-13T07:17:08.684Z,14.38
2022-12-13T07:18:11.423Z,16.55
2022-12-13T07:19:23.889Z,17.50
2022-12-13T07:20:27.326Z,13.55
2022-12-13T07:21:30.312Z,17.80
2022-12-13T07:22:34.462Z,18.25
2022-12-13T07:23:39.309Z,17.65
2022-12-13T07:24:44.400Z,18.30
2022-12-13T07:25:52.898Z,16.80
2022-12-13T07:26:56.993Z,16.08
2022-12-13T07:28:01.111Z,16.77
2022-12-13T07:29:05.401Z,16.55
2022-12-13T07:30:09.812Z,17.38
2022-12-13T07:31:13.552Z,15.13
2022-12-13T07:32:15.917Z,11.70
2022-12-13T07:33:22.387Z,16.52
2022-12-13T07:34:25.579Z,12.07
2022-12-13T07:35:28.537Z,12.45
2022-12-13T07:36:31.350Z,17.77
2022-12-13T07:37:35.837Z,16.63
2022-12-13T07:38:38.900Z,11.80
2022-12-13T07:39:40.941Z,16.50
2022-12-13T07:40:43.710Z,15.73
2022-12-13T07:41:46.715Z,17.38
2022-12-13T07:42:52.099Z,17.73
2022-12-13T07:43:55.737Z,17.45
2022-12-13T07:44:58.837Z,15.63
2022-12-13T07:46:02.579Z,17.75
2022-12-13T07:47:05.462Z,18.02
2022-12-13T07:48:08.605Z,17.00
2022-12-13T07:49:13.255Z,17.85
2022-12-13T07:50:24.620Z,19.00
2022-12-13T07:51:28.882Z,17.50
2022-12-13T07:52:31.633Z,15.95
2022-12-13T07:53:34.113Z,16.52
2022-12-13T07:54:37.161Z,17.20
2022-12-13T07:55:38.935Z,16.42
2022-12-13T07:56:41.674Z,14.38
2022-12-13T07:57:44.669Z,16.17
2022-12-13T07:58:48.782Z,17.13
2022-12-13T07:59:51.545Z,17.55
2022-12-13T08:00:54.636Z,14.60
2022-12-13T08:01:57.664Z,13.30
2022-12-13T08:03:05.863Z,15.80
2022-12-13T08:04:10.818Z,14.02
2022-12-13T08:05:25.728Z,10.02
2022-12-13T08:06:29.564Z,13.77
2022-12-13T08:07:32.308Z,14.02
2022-12-13T08:08:36.082Z,13.32
2022-12-13T08:09:39.222Z,12.25
2022-12-13T08:10:42.118Z,12.52
2022-12-13T08:11:45.310Z,11.05
2022-12-13T08:12:48.077Z,12.50
2022-12-13T08:13:52.311Z,12.05
2022-12-13T08:14:55.391Z,10.35
2022-12-13T08:16:02.610Z,10.13
2022-12-13T08:17:05.901Z,11.10
2022-12-13T08:18:08.639Z,6.57
2022-12-13T08:19:11.519Z,11.57
2022-12-13T08:20:13.526Z,10.98
2022-12-13T08:21:52.796Z,10.90
2022-12-13T08:22:55.607Z,10.68
2022-12-13T08:24:05.525Z,10.82
2022-12-13T08:25:09.117Z,8.05
2022-12-13T08:26:31.168Z,10.18
2022-12-13T08:27:34.022Z,12.32
2022-12-13T08:28:37.906Z,7.47
2022-12-13T08:29:42.049Z,9.05
2022-12-13T08:30:45.143Z,9.70
2022-12-13T08:31:47.928Z,9.88
2022-12-13T08:32:50.334Z,7.20
2022-12-13T08:33:53.484Z,8.52
2022-12-13T08:34:56.233Z,9.93
2022-12-13T08:35:58.991Z,7.15
2022-12-13T08:37:03.902Z,10.50
2022-12-13T08:38:07.393Z,9.52
2022-12-13T08:39:10.145Z,9.63
2022-12-13T08:40:13.154Z,8.40
2022-12-13T08:41:15.882Z,7.15
2022-12-13T08:42:20.322Z,8.75
2022-12-13T08:43:24.648Z,9.88
2022-12-13T08:44:27.875Z,9.77
2022-12-13T08:45:34.132Z,8.48
2022-12-13T08:46:36.933Z,8.75
2022-12-13T08:47:42.112Z,6.88
2022-12-13T08:48:44.731Z,7.95
2022-12-13T08:49:48.129Z,8.32
2022-12-13T08:50:50.886Z,8.60
2022-12-13T08:51:52.734Z,8.40
2022-12-13T08:52:55.697Z,7.80
2022-12-13T08:54:10.570Z,7.75
2022-12-13T08:55:15.995Z,7.72
2022-12-13T08:56:37.442Z,8.55
2022-12-13T08:57:40.588Z,9.80
2022-12-13T08:58:43.343Z,8.15
2022-12-13T08:59:46.380Z,8.23
2022-12-13T09:00:50.860Z,8.45
2022-12-13T09:01:53.842Z,9.15
2022-12-13T09:02:58.427Z,5.65
2022-12-13T09:04:01.145Z,8.93
2022-12-13T09:05:04.386Z,6.70
2022-12-13T09:06:10.261Z,8.45
2022-12-13T09:07:13.290Z,7.80
2022-12-13T09:08:25.238Z,8.48
2022-12-13T09:09:29.058Z,7.50
2022-12-13T09:10:38.188Z,7.35
2022-12-13T09:11:42.719Z,8.82
2022-12-13T09:12:45.873Z,8.45
2022-12-13T09:13:49.293Z,8.98
2022-12-13T09:14:52.159Z,9.00
2022-12-13T09:16:14.288Z,8.23
2022-12-13T09:17:25.861Z,7.95
2022-12-13T09:18:36.568Z,6.40
2022-12-13T09:19:39.757Z,7.88
2022-12-13T09:20:42.722Z,6.57
2022-12-13T09:21:45.712Z,8.07
2022-12-13T09:22:50.132Z,8.95
2022-12-13T09:23:52.896Z,6.80
2022-12-13T09:25:05.197Z,10.75
2022-12-13T09:26:08.224Z,7.30
2022-12-13T09:27:28.221Z,6.97
2022-12-13T09:28:31.853Z,8.35
2022-12-13T09:29:36.312Z,7.32
2022-12-13T09:30:40.385Z,8.10
2022-12-13T09:31:51.009Z,5.20
2022-12-13T09:33:28.335Z,8.82
2022-12-13T09:34:33.976Z,7.72
2022-12-13T09:35:38.994Z,6.82
2022-12-13T09:36:44.342Z,9.27
2022-12-13T09:37:47.207Z,6.68
2022-12-13T09:38:50.401Z,7.97
2022-12-13T09:39:54.985Z,9.13
2022-12-13T09:40:59.535Z,9.45
2022-12-13T09:42:10.300Z,9.95
2022-12-13T09:43:23.016Z,8.48
2022-12-13T09:44:42.782Z,6.68
2022-12-13T09:45:50.486Z,5.43
2022-12-13T09:46:55.781Z,7.78
2022-12-13T09:48:07.186Z,6.55
2022-12-13T09:49:23.081Z,4.40
2022-12-13T09:50:29.202Z,5.60
2022-12-13T09:51:47.292Z,6.72
2022-12-13T09:52:51.898Z,6.22
2022-12-13T09:54:02.576Z,5.82
2022-12-13T09:55:10.950Z,5.65
2022-12-13T09:56:13.966Z,5.43
2022-12-13T09:57:30.612Z,7.10
2022-12-13T09:58:57.605Z,7.25
2022-12-13T10:00:05.968Z,5.13
2022-12-13T10:01:23.303Z,5.90
2022-12-13T10:02:30.582Z,6.07
2022-12-13T10:03:34.628Z,5.47
2022-12-13T10:04:37.445Z,6.32
2022-12-13T10:05:40.479Z,6.13
2022-12-13T10:06:43.639Z,6.00
2022-12-13T10:07:46.192Z,6.10
2022-12-13T10:08:50.048Z,5.57
2022-12-13T10:10:01.712Z,7.75
2022-12-13T10:11:05.269Z,6.60
2022-12-13T10:12:11.868Z,6.10
2022-12-13T10:13:19.198Z,5.95
2022-12-13T10:14:26.235Z,8.30
2022-12-13T10:15:29.371Z,9.73
2022-12-13T10:16:39.875Z,6.72
2022-12-13T10:17:55.408Z,4.85
2022-12-13T10:18:58.694Z,10.32
2022-12-13T10:20:00.705Z,8.65
2022-12-13T10:21:05.741Z,9.88
2022-12-13T10:22:13.370Z,14.48
2022-12-13T10:23:35.771Z,8.38
2022-12-13T10:24:50.693Z,5.78
2022-12-13T10:26:03.173Z,5.30
2022-12-13T10:27:14.533Z,7.43
2022-12-13T10:28:19.287Z,8.68
2022-12-13T10:29:23.139Z,8.82
2022-12-13T10:30:29.096Z,7.32
2022-12-13T10:31:40.625Z,9.13
2022-12-13T10:32:49.323Z,8.00
2022-12-13T10:33:55.328Z,9.02
2022-12-13T10:34:58.825Z,7.95
2022-12-13T10:36:06.679Z,8.07
2022-12-13T10:37:26.204Z,8.27
2022-12-13T10:38:31.892Z,9.63
2022-12-13T10:39:40.530Z,9.52
2022-12-13T10:40:45.546Z,8.57
2022-12-13T10:41:48.457Z,9.32
2022-12-13T10:43:07.598Z,8.75
2022-12-13T10:44:18.618Z,11.07
2022-12-13T10:45:24.431Z,10.27
2022-12-13T10:46:31.103Z,8.32
2022-12-13T10:47:43.481Z,10.27
2022-12-13T10:48:50.563Z,10.30
2022-12-13T10:49:59.001Z,10.07
2022-12-13T10:51:04.583Z,9.73
2022-12-13T10:52:09.228Z,13.63
2022-12-13T10:53:19.616Z,16.40
2022-12-13T10:54:28.701Z,9.20
2022-12-13T10:55:41.115Z,10.48
2022-12-13T10:56:47.044Z,11.32
2022-12-13T10:57:52.187Z,9.88
2022-12-13T10:59:16.547Z,9.75
2022-12-13T11:00:41.303Z,9.88
2022-12-13T11:01:44.572Z,8.73
2022-12-13T11:02:55.299Z,6.32
2022-12-13T11:04:02.609Z,9.05
2022-12-13T11:05:25.940Z,6.72
2022-12-13T11:06:29.537Z,8.77
2022-12-13T11:07:33.487Z,9.30
2022-12-13T11:08:37.178Z,9.75
2022-12-13T11:09:39.938Z,9.50
2022-12-13T11:10:42.903Z,10.30
2022-12-13T11:11:46.616Z,11.00
2022-12-13T11:12:50.650Z,10.52
2022-12-13T11:13:54.410Z,11.98
2022-12-13T11:14:59.113Z,11.70
2022-12-13T11:16:01.824Z,11.15
2022-12-13T11:17:08.637Z,9.68
2022-12-13T11:18:23.175Z,11.30
2022-12-13T11:19:30.798Z,10.32
2022-12-13T11:20:35.703Z,12.30
2022-12-13T11:21:39.628Z,12.13
2022-12-13T11:22:44.169Z,13.20
2022-12-13T11:23:47.665Z,7.28
2022-12-13T11:24:52.372Z,12.07
2022-12-13T11:25:58.688Z,14.30
2022-12-13T11:27:05.917Z,11.40
2022-12-13T11:28:26.976Z,15.45
2022-12-13T11:29:58.912Z,15.20
2022-12-13T11:31:10.185Z,15.15
2022-12-13T11:32:22.894Z,15.02
2022-12-13T11:33:29.001Z,12.30
2022-12-13T11:34:39.191Z,21.15
2022-12-13T11:35:55.169Z,22.77
2022-12-13T11:37:03.728Z,20.13
2022-12-13T11:38:16.176Z,14.15
2022-12-13T11:39:21.306Z,17.88
2022-12-13T11:40:26.878Z,19.77
2022-12-13T11:41:33.332Z,20.77
2022-12-13T11:42:40.262Z,21.15
2022-12-13T11:43:47.746Z,21.23
2022-12-13T11:44:59.918Z,21.48
2022-12-13T11:46:06.148Z,19.83
2022-12-13T11:47:15.419Z,20.73
2022-12-13T11:48:21.429Z,16.40
2022-12-13T11:49:33.526Z,19.65
2022-12-13T11:50:40.439Z,20.50
2022-12-13T11:51:46.229Z,19.92
2022-12-13T11:52:53.718Z,18.52
2022-12-13T11:54:01.860Z,20.33
2022-12-13T11:55:08.033Z,20.15
2022-12-13T11:56:17.141Z,25.77
2022-12-13T11:57:28.474Z,22.25
2022-12-13T11:59:01.875Z,20.73
2022-12-13T12:00:13.211Z,20.80
2022-12-13T12:01:23.611Z,18.80
2022-12-13T12:02:30.424Z,18.90
2022-12-13T12:03:37.983Z,18.60
2022-12-13T12:04:47.240Z,22.40
2022-12-13T12:05:56.102Z,28.38
2022-12-13T12:07:24.339Z,25.42
2022-12-13T12:08:43.691Z,18.90
2022-12-13T12:09:51.622Z,16.65
2022-12-13T12:11:02.499Z,14.65
2022-12-13T12:12:09.258Z,17.20
2022-12-13T12:13:18.009Z,16.98
2022-12-13T12:14:24.578Z,17.70
2022-12-13T12:15:31.016Z,11.52
2022-12-13T12:16:39.805Z,15.77
2022-12-13T12:17:43.285Z,16.65
2022-12-13T12:18:46.476Z,16.58
2022-12-13T12:19:52.449Z,15.80
2022-12-13T12:21:05.985Z,7.93
2022-12-13T12:22:19.301Z,9.52
2022-12-13T12:23:30.067Z,14.00
2022-12-13T12:24:40.559Z,15.27
2022-12-13T12:25:48.443Z,8.27
2022-12-13T12:27:01.043Z,15.57
2022-12-13T12:28:12.100Z,7.95
2022-12-13T12:29:27.772Z,13.35
2022-12-13T12:30:39.293Z,15.30
2022-12-13T12:31:50.897Z,13.82
2022-12-13T12:32:55.831Z,14.35
2022-12-13T12:34:05.533Z,14.35
2022-12-13T12:35:23.124Z,15.27
2022-12-13T12:36:37.924Z,13.52
2022-12-13T12:37:48.393Z,11.40
2022-12-13T12:39:06.379Z,11.60
2022-12-13T12:41:14.230Z,13.98
2022-12-13T12:42:16.382Z,13.85
2022-12-13T12:43:23.755Z,15.43
2022-12-13T12:44:33.650Z,11.82
2022-12-13T12:45:57.313Z,15.68
2022-12-13T12:49:00.474Z,18.38
2022-12-13T12:50:27.409Z,14.40
2022-12-13T12:51:35.541Z,10.88
2022-12-13T12:52:50.625Z,14.13
2022-12-13T12:53:56.111Z,14.60
2022-12-13T12:55:05.212Z,15.45
2022-12-13T12:56:18.688Z,17.30
2022-12-13T12:57:24.792Z,11.75
2022-12-13T12:58:30.126Z,14.90
2022-12-13T12:59:38.589Z,13.82
2022-12-13T13:00:46.514Z,13.88
2022-12-13T13:01:57.431Z,13.82
2022-12-13T13:03:14.728Z,12.10
2022-12-13T13:04:23.223Z,10.98
2022-12-13T13:05:28.889Z,11.43
2022-12-13T13:06:36.026Z,12.45
2022-12-13T13:07:43.562Z,13.55
2022-12-13T13:08:59.224Z,9.93
2022-12-13T13:10:16.328Z,11.25
2022-12-13T13:11:27.904Z,11.95
2022-12-13T13:12:32.423Z,11.52
2022-12-13T13:13:46.056Z,13.20
2022-12-13T13:14:50.349Z,10.93
2022-12-13T13:15:57.842Z,11.65
2022-12-13T13:17:02.024Z,11.35
2022-12-13T13:18:04.749Z,11.18
2022-12-13T13:19:41.994Z,11.38
2022-12-13T13:20:45.054Z,9.38
2022-12-13T13:21:50.300Z,11.32
2022-12-13T13:23:10.305Z,11.48
2022-12-13T13:24:19.888Z,9.95
2022-12-13T13:25:32.726Z,9.45
2022-12-13T13:26:40.612Z,12.60
2022-12-13T13:27:44.942Z,12.57
2022-12-13T13:28:47.738Z,15.10
2022-12-13T13:29:50.968Z,13.00
2022-12-13T13:31:04.877Z,14.35
2022-12-13T13:32:27.914Z,13.10
2022-12-13T13:33:45.008Z,13.18
2022-12-13T13:34:49.488Z,13.25
2022-12-13T13:35:54.237Z,16.05
2022-12-13T13:36:59.258Z,14.35
2022-12-13T13:38:05.383Z,15.68
2022-12-13T13:39:16.413Z,15.27
2022-12-13T13:40:34.364Z,16.05
2022-12-13T13:41:56.685Z,15.02
2022-12-13T13:43:04.762Z,14.23
2022-12-13T13:44:35.501Z,13.60
2022-12-13T13:45:57.681Z,14.80
2022-12-13T13:47:12.827Z,14.38
2022-12-13T13:48:25.008Z,14.80
2022-12-13T13:49:31.622Z,14.32
2022-12-13T13:51:10.606Z,13.90
2022-12-13T13:52:25.568Z,14.18
2022-12-13T13:53:41.071Z,13.20
2022-12-13T13:55:40.647Z,13.45
2022-12-13T13:57:33.204Z,13.52
2022-12-13T13:59:07.002Z,13.60
2022-12-13T14:00:14.846Z,13.70
2022-12-13T14:01:47.981Z,14.35
2022-12-13T14:03:33.117Z,15.00
2022-12-13T14:04:59.529Z,14.65
2022-12-13T14:06:35.189Z,17.30
2022-12-13T14:07:54.379Z,17.60
2022-12-13T14:09:20.432Z,16.45
2022-12-13T14:10:51.408Z,15.02
2022-12-13T14:12:34.657Z,17.65
2022-12-13T14:14:21.352Z,15.50
2022-12-13T14:15:49.271Z,14.15
2022-12-13T14:17:41.458Z,14.52
2022-12-13T14:19:21.290Z,16.42
2022-12-13T14:20:46.226Z,21.55
2022-12-13T14:22:06.809Z,15.73
2022-12-13T14:23:21.806Z,18.25
2022-12-13T14:24:44.057Z,17.58
2022-12-13T14:25:59.951Z,17.50
2022-12-13T14:27:11.662Z,15.57
2022-12-13T14:28:18.500Z,18.58
2022-12-13T14:29:25.552Z,19.65
2022-12-13T14:30:29.525Z,33.42
2022-12-13T14:31:37.427Z,58.95
2022-12-13T14:32:40.648Z,52.53
2022-12-13T14:33:47.503Z,32.55
2022-12-13T14:34:50.722Z,24.02
2022-12-13T14:35:55.411Z,19.98
2022-12-13T14:37:00.606Z,17.98
2022-12-13T14:38:05.287Z,16.42
2022-12-13T14:39:25.001Z,16.45
2022-12-13T14:40:32.051Z,15.90
2022-12-13T14:41:35.348Z,16.38
2022-12-13T14:42:42.060Z,16.23